Time;durP1;ratioP1;P1;durP2;ratioP2;P2;SDS_P1;SDS_P2;PMS_P1;PMS_P2;Temp;Humidity;BMP_temperature;BMP_pressure;BME280_temperature;BME280_humidity;BME280_pressure;Samples;Min_cycle;Max_cycle;Signal;HPM_P1;HPM_P2
2022/12/14 00:01:26;;;;;;;17.88;9.80;;;-2.00;1.00;;;;;;7371566;19;20014;-72
2022/12/14 00:03:57;;;;;;;20.25;10.23;;;-1.90;1.00;;;;;;7366904;19;20016;-72
2022/12/14 00:06:29;;;;;;;19.13;9.70;;;-1.90;1.00;;;;;;7371003;19;20081;-71
2022/12/14 00:09:01;;;;;;;18.92;9.43;;;-1.90;1.00;;;;;;7369280;19;20370;-71
2022/12/14 00:11:31;;;;;;;16.05;9.57;;;-1.90;1.00;;;;;;7369553;19;20297;-71
2022/12/14 00:14:05;;;;;;;24.30;9.88;;;-2.00;1.00;;;;;;7389847;19;20101;-72
2022/12/14 00:16:36;;;;;;;18.98;10.27;;;-2.00;1.00;;;;;;7369731;19;20014;-72
2022/12/14 00:19:06;;;;;;;19.00;9.90;;;-1.90;1.00;;;;;;7370547;19;20338;-72
2022/12/14 00:21:36;;;;;;;15.57;9.63;;;-1.90;1.00;;;;;;7368289;19;20022;-72
2022/12/14 00:24:07;;;;;;;16.65;9.75;;;-1.90;1.00;;;;;;7366701;19;20018;-71
2022/12/14 00:26:36;;;;;;;15.02;9.27;;;-1.90;1.00;;;;;;7370454;19;20009;-73
2022/12/14 00:29:09;;;;;;;16.73;9.85;;;-2.00;1.00;;;;;;7391729;19;20014;-73
2022/12/14 00:31:39;;;;;;;17.60;9.90;;;-1.80;1.00;;;;;;7368043;19;20010;-71
2022/12/14 00:34:08;;;;;;;17.92;9.73;;;-1.80;1.00;;;;;;7368418;19;20014;-72
2022/12/14 00:36:38;;;;;;;18.92;9.68;;;-1.80;1.00;;;;;;7369401;19;20094;-72
2022/12/14 00:39:08;;;;;;;17.67;9.07;;;-1.90;1.00;;;;;;7370305;19;20006;-72
2022/12/14 00:41:38;;;;;;;17.02;8.43;;;-1.90;1.00;;;;;;7368104;19;20018;-72
2022/12/14 00:44:10;;;;;;;17.38;9.45;;;-1.90;1.00;;;;;;7389201;19;20022;-72
2022/12/14 00:46:40;;;;;;;18.95;9.60;;;-1.80;1.00;;;;;;7369910;19;20339;-73
2022/12/14 00:49:11;;;;;;;17.98;9.50;;;-1.70;1.00;;;;;;7368467;19;20466;-73
2022/12/14 00:51:41;;;;;;;15.63;9.25;;;-1.70;1.00;;;;;;7364788;19;20006;-73
2022/12/14 00:54:11;;;;;;;14.57;9.07;;;-1.80;1.00;;;;;;7367276;19;20010;-72
2022/12/14 00:56:40;;;;;;;19.20;10.88;;;-1.80;1.00;;;;;;7368802;19;20017;-72
2022/12/14 00:59:13;;;;;;;18.77;9.85;;;-1.80;1.00;;;;;;7390843;19;20034;-72
2022/12/14 01:01:42;;;;;;;17.98;9.88;;;-1.70;1.00;;;;;;7367079;19;20017;-73
2022/12/14 01:04:21;;;;;;;17.77;9.60;;;-1.70;1.00;;;;;;7365932;19;20023;-72
2022/12/14 01:06:52;;;;;;;13.57;9.02;;;-1.70;1.00;;;;;;7367293;19;20007;-72
2022/12/14 01:09:24;;;;;;;17.42;9.25;;;-1.70;1.00;;;;;;7367347;19;20476;-72
2022/12/14 01:11:54;;;;;;;18.65;10.35;;;-1.80;1.00;;;;;;7366451;19;20006;-71
2022/12/14 01:14:27;;;;;;;16.30;9.32;;;-1.80;1.00;;;;;;7368276;19;20010;-72
2022/12/14 01:16:56;;;;;;;17.23;9.70;;;-1.70;1.00;;;;;;7390608;19;20315;-71
2022/12/14 01:19:26;;;;;;;15.85;10.13;;;-1.70;1.00;;;;;;7366731;19;20640;-71
2022/12/14 01:21:57;;;;;;;17.35;9.40;;;-1.70;1.00;;;;;;7366308;19;20003;-72
2022/12/14 01:24:27;;;;;;;14.80;8.98;;;-1.80;1.00;;;;;;7365708;19;20509;-71
2022/12/14 01:26:57;;;;;;;17.73;9.63;;;-1.80;1.00;;;;;;7368421;19;20122;-72
2022/12/14 01:29:29;;;;;;;18.45;9.88;;;-1.80;1.00;;;;;;7367661;19;20018;-72
2022/12/14 01:31:59;;;;;;;21.02;10.75;;;-1.90;1.00;;;;;;7387766;19;20042;-72
2022/12/14 01:34:30;;;;;;;18.33;10.32;;;-1.80;1.00;;;;;;7366756;19;20017;-72
2022/12/14 01:36:59;;;;;;;18.73;9.48;;;-1.80;1.00;;;;;;7367244;19;20029;-70
2022/12/14 01:39:30;;;;;;;16.48;9.20;;;-1.70;1.00;;;;;;7368149;19;20716;-73
2022/12/14 01:41:59;;;;;;;20.52;10.48;;;-1.70;1.00;;;;;;7366711;19;20014;-71
2022/12/14 01:44:54;;;;;;;17.33;9.15;;;-1.70;1.00;;;;;;7365219;19;20015;-72
2022/12/14 01:47:29;;;;;;;17.15;9.98;;;-1.70;1.00;;;;;;7367734;19;20026;-73
2022/12/14 01:50:04;;;;;;;20.80;10.75;;;-1.60;1.00;;;;;;7388300;19;20010;-72
2022/12/14 01:52:39;;;;;;;18.00;10.43;;;-1.60;1.00;;;;;;7365250;19;20006;-72
2022/12/14 01:55:13;;;;;;;19.92;10.05;;;-1.70;1.00;;;;;;7365999;19;20034;-72
2022/12/14 01:57:49;;;;;;;19.83;10.85;;;-1.80;1.00;;;;;;7368941;19;20350;-72
2022/12/14 02:00:22;;;;;;;18.42;10.25;;;-1.70;1.00;;;;;;7368788;19;20045;-72
2022/12/14 02:02:57;;;;;;;18.00;10.52;;;-1.60;1.00;;;;;;7363666;19;20377;-70
2022/12/14 02:05:28;;;;;;;20.30;10.48;;;-1.70;1.00;;;;;;7363242;19;20003;-72
2022/12/14 02:07:58;;;;;;;18.35;9.88;;;-1.70;1.00;;;;;;7389155;19;20458;-72
2022/12/14 02:10:30;;;;;;;22.42;10.55;;;-1.70;1.00;;;;;;7393264;19;20002;-72
2022/12/14 02:13:05;;;;;;;19.13;9.77;;;-1.70;1.00;;;;;;7387295;19;20054;-72
2022/12/14 02:15:39;;;;;;;17.75;10.50;;;-1.80;1.00;;;;;;7374263;19;20015;-72
2022/12/14 02:18:13;;;;;;;17.17;10.57;;;-1.80;1.00;;;;;;7368284;19;20010;-72
2022/12/14 02:20:51;;;;;;;17.75;11.05;;;-1.80;1.00;;;;;;7367233;19;20025;-72
2022/12/14 02:23:49;;;;;;;18.60;10.75;;;-1.70;1.00;;;;;;7384266;19;20014;-73
2022/12/14 02:26:51;;;;;;;18.52;10.80;;;-1.70;1.00;;;;;;7263181;19;2004312;-71
2022/12/14 02:29:49;;;;;;;18.73;10.50;;;-1.70;1.00;;;;;;7388182;19;20014;-74
2022/12/14 02:32:45;;;;;;;20.25;10.65;;;-1.70;1.00;;;;;;7385595;19;20371;-72
2022/12/14 02:35:24;;;;;;;20.67;10.52;;;-1.70;1.00;;;;;;7363841;19;20017;-71
2022/12/14 02:38:02;;;;;;;21.08;11.40;;;-1.70;1.00;;;;;;7368194;19;20056;-71
2022/12/14 02:40:39;;;;;;;19.17;11.13;;;-1.70;1.00;;;;;;7365434;19;20011;-72
2022/12/14 02:43:17;;;;;;;17.55;10.43;;;-1.70;1.00;;;;;;7364231;19;20013;-71
2022/12/14 02:45:56;;;;;;;23.73;12.02;;;-1.60;1.00;;;;;;7365761;19;20030;-71
2022/12/14 02:48:30;;;;;;;20.25;10.77;;;-1.70;1.00;;;;;;7366756;19;20010;-72
2022/12/14 02:51:08;;;;;;;22.42;11.90;;;-1.60;1.00;;;;;;7365000;19;20018;-72
2022/12/14 02:53:44;;;;;;;20.75;10.32;;;-1.70;1.00;;;;;;7361540;19;20021;-72
2022/12/14 02:56:20;;;;;;;20.73;11.32;;;-1.60;1.00;;;;;;7387149;19;20011;-72
2022/12/14 02:58:50;;;;;;;22.58;12.93;;;-1.60;1.00;;;;;;7365192;19;20122;-72
2022/12/14 03:01:27;;;;;;;19.75;12.32;;;-1.60;1.00;;;;;;7363605;19;20021;-72
2022/12/14 03:03:57;;;;;;;22.48;11.82;;;-1.50;1.00;;;;;;7362335;19;20006;-72
2022/12/14 03:06:28;;;;;;;22.60;12.13;;;-1.60;1.00;;;;;;7363672;19;20007;-72
2022/12/14 03:09:02;;;;;;;21.70;11.45;;;-1.60;1.00;;;;;;7365718;19;20085;-72
2022/12/14 03:11:39;;;;;;;21.17;11.63;;;-1.60;1.00;;;;;;7363762;19;20014;-71
2022/12/14 03:14:15;;;;;;;22.20;11.57;;;-1.70;1.00;;;;;;7384689;19;20010;-71
2022/12/14 03:16:51;;;;;;;22.90;12.10;;;-1.60;1.00;;;;;;7364771;19;20082;-72
2022/12/14 03:19:25;;;;;;;18.90;12.40;;;-1.60;1.00;;;;;;7362979;19;20029;-71
2022/12/14 03:21:59;;;;;;;20.52;12.10;;;-1.60;1.00;;;;;;7361674;19;20014;-71
2022/12/14 03:24:32;;;;;;;23.45;12.30;;;-1.70;1.00;;;;;;7363515;19;20017;-70
2022/12/14 03:27:05;;;;;;;21.98;12.55;;;-1.70;1.00;;;;;;7365371;19;20082;-70
2022/12/14 03:29:40;;;;;;;21.40;12.70;;;-1.70;1.00;;;;;;7363728;19;20015;-71
2022/12/14 03:32:17;;;;;;;21.85;12.20;;;-1.70;1.00;;;;;;7384625;19;20020;-72
2022/12/14 03:34:54;;;;;;;26.17;11.90;;;-1.60;1.00;;;;;;7362428;19;20021;-72
2022/12/14 03:37:31;;;;;;;21.75;11.85;;;-1.70;1.00;;;;;;7364149;19;20010;-72
2022/12/14 03:40:01;;;;;;;21.17;11.77;;;-1.50;1.00;;;;;;7364024;19;20014;-72
2022/12/14 03:42:40;;;;;;;22.15;12.35;;;-1.60;1.00;;;;;;7362550;19;20081;-72
2022/12/14 03:45:18;;;;;;;26.60;13.15;;;-1.60;1.00;;;;;;7361506;19;20105;-72
2022/12/14 03:48:02;;;;;;;22.23;12.13;;;-1.60;1.00;;;;;;7364577;19;20098;-72
2022/12/14 03:50:40;;;;;;;22.80;12.30;;;-1.50;1.00;;;;;;7364380;19;20046;-72
2022/12/14 03:53:14;;;;;;;23.80;12.40;;;-1.50;1.00;;;;;;7384003;19;20021;-72
2022/12/14 03:55:54;;;;;;;25.98;13.15;;;-1.50;1.00;;;;;;7362661;19;19998;-72
2022/12/14 03:58:36;;;;;;;25.25;13.35;;;-1.50;1.00;;;;;;7362105;19;20098;-72
2022/12/14 04:01:13;;;;;;;24.55;13.07;;;-1.50;1.00;;;;;;7363402;19;20022;-71
2022/12/14 04:03:50;;;;;;;23.10;13.10;;;-1.50;1.00;;;;;;7359043;19;20018;-71
2022/12/14 04:06:29;;;;;;;24.60;12.65;;;-1.60;1.00;;;;;;7362869;19;20007;-71
2022/12/14 04:09:11;;;;;;;23.17;12.85;;;-1.60;1.00;;;;;;7363829;19;20007;-71
2022/12/14 04:20:19;;;;;;;22.00;12.70;;;-1.60;1.00;;;;;;7383794;19;20007;-72
2022/12/14 04:22:55;;;;;;;24.15;13.20;;;-1.60;1.00;;;;;;7355809;19;20015;-72
2022/12/14 04:31:03;;;;;;;24.85;14.20;;;-1.50;1.00;;;;;;7369090;19;20366;-72
2022/12/14 04:33:48;;;;;;;22.08;12.65;;;-1.50;1.00;;;;;;7365023;19;20010;-71
2022/12/14 04:36:27;;;;;;;23.80;14.05;;;-1.60;1.00;;;;;;7369726;19;20084;-72
2022/12/14 04:39:01;;;;;;;26.73;14.02;;;-1.60;1.00;;;;;;7370387;19;20013;-71
2022/12/14 04:41:35;;;;;;;;;;;-1.60;1.00;;;;;;7370164;19;20077;-71
2022/12/14 04:44:23;;;;;;;24.05;13.40;;;-1.60;1.00;;;;;;7389930;19;19915;-71
2022/12/14 04:46:54;;;;;;;29.85;14.15;;;-1.60;1.00;;;;;;7366732;19;20039;-71
2022/12/14 04:49:30;;;;;;;26.05;14.30;;;-1.60;1.00;;;;;;7368150;19;20007;-71
2022/12/14 04:52:06;;;;;;;22.13;13.27;;;-1.60;1.00;;;;;;7367230;19;20489;-71
2022/12/14 04:54:41;;;;;;;25.85;14.70;;;-1.60;1.00;;;;;;7366017;19;20370;-71
2022/12/14 04:57:18;;;;;;;31.55;15.07;;;-1.60;1.00;;;;;;7368907;19;20017;-71
2022/12/14 04:59:49;;;;;;;29.98;16.08;;;-1.60;1.00;;;;;;7368538;19;20029;-70
2022/12/14 05:02:28;;;;;;;27.52;14.73;;;-1.60;1.00;;;;;;7390433;19;20041;-71
2022/12/14 05:05:06;;;;;;;27.02;15.43;;;-1.60;1.00;;;;;;7367427;19;20007;-70
2022/12/14 05:07:48;;;;;;;28.23;14.63;;;-1.50;1.00;;;;;;7368345;19;20038;-71
2022/12/14 05:10:21;;;;;;;27.38;14.98;;;-1.60;1.00;;;;;;7369315;19;20013;-71
2022/12/14 05:12:59;;;;;;;30.80;15.30;;;-1.60;1.00;;;;;;7367879;19;20003;-70
2022/12/14 05:15:35;;;;;;;26.50;15.35;;;-1.60;1.00;;;;;;7367298;19;20002;-71
2022/12/14 05:18:06;;;;;;;33.28;15.18;;;-1.60;1.00;;;;;;7367093;19;20471;-72
2022/12/14 05:20:36;;;;;;;27.75;14.85;;;-1.50;1.00;;;;;;7383357;19;20010;-71
2022/12/14 05:23:09;;;;;;;29.38;16.15;;;-1.60;1.00;;;;;;7400997;19;20011;-71
2022/12/14 05:25:38;;;;;;;24.50;14.52;;;-1.60;1.00;;;;;;7371943;19;20042;-70
2022/12/14 05:28:08;;;;;;;26.58;14.95;;;-1.60;1.00;;;;;;7366688;19;20020;-70
2022/12/14 05:30:38;;;;;;;29.33;15.82;;;-1.70;1.00;;;;;;7368455;19;20020;-71
2022/12/14 05:33:11;;;;;;;29.70;16.08;;;-1.70;1.00;;;;;;7366289;19;20086;-71
2022/12/14 05:35:41;;;;;;;30.48;15.55;;;-1.70;1.00;;;;;;7366919;19;20016;-71
2022/12/14 05:38:14;;;;;;;29.70;16.23;;;-1.60;1.00;;;;;;7389965;19;20011;-71
2022/12/14 05:40:44;;;;;;;33.92;16.45;;;-1.60;1.00;;;;;;7368175;19;20007;-71
2022/12/14 05:43:14;;;;;;;31.45;17.40;;;-1.60;1.00;;;;;;7366604;19;20235;-71
2022/12/14 05:45:44;;;;;;;33.90;16.10;;;-1.50;1.00;;;;;;7366321;19;20011;-71
2022/12/14 05:48:14;;;;;;;25.95;15.23;;;-1.50;1.00;;;;;;7367087;19;20030;-71
2022/12/14 05:50:44;;;;;;;27.67;15.70;;;-1.60;1.00;;;;;;7365830;19;20473;-71
2022/12/14 05:53:16;;;;;;;30.58;16.38;;;-1.50;1.00;;;;;;7387153;19;20703;-71
2022/12/14 05:55:48;;;;;;;38.60;17.05;;;-1.50;1.00;;;;;;7365130;19;20003;-71
2022/12/14 05:58:18;;;;;;;28.88;17.02;;;-1.50;1.00;;;;;;7366786;19;20454;-71
2022/12/14 06:00:48;;;;;;;32.47;17.10;;;-1.50;1.00;;;;;;7367621;19;20010;-71
2022/12/14 06:03:19;;;;;;;31.73;16.20;;;-1.50;1.00;;;;;;7363772;19;20014;-71
2022/12/14 06:05:51;;;;;;;31.90;17.77;;;-1.60;1.00;;;;;;7369726;19;20739;-71
2022/12/14 06:08:24;;;;;;;30.17;16.88;;;-1.60;1.00;;;;;;7391355;19;20019;-71
2022/12/14 06:10:53;;;;;;;33.15;17.73;;;-1.50;1.00;;;;;;7370621;19;20018;-70
2022/12/14 06:13:23;;;;;;;29.15;16.48;;;-1.50;1.00;;;;;;7369580;19;20011;-70
2022/12/14 06:15:54;;;;;;;31.52;16.02;;;-1.50;1.00;;;;;;7369636;19;20006;-71
2022/12/14 06:18:24;;;;;;;36.53;17.67;;;-1.60;1.00;;;;;;7367908;19;20049;-71
2022/12/14 06:20:54;;;;;;;30.35;17.15;;;-1.50;1.00;;;;;;7369144;19;20010;-71
2022/12/14 06:23:27;;;;;;;31.05;17.38;;;-1.50;1.00;;;;;;7369406;19;20021;-72
2022/12/14 06:25:57;;;;;;;30.35;17.20;;;-1.50;1.00;;;;;;7392291;19;20006;-71
2022/12/14 06:28:27;;;;;;;34.13;18.95;;;-1.50;1.00;;;;;;7367706;19;20010;-71
2022/12/14 06:30:57;;;;;;;29.65;16.58;;;-1.50;1.00;;;;;;7369036;19;20034;-72
2022/12/14 06:33:27;;;;;;;29.98;17.25;;;-1.50;1.00;;;;;;7368602;19;20526;-71
2022/12/14 06:35:58;;;;;;;36.40;18.98;;;-1.40;1.00;;;;;;7369332;19;20010;-70
2022/12/14 06:38:30;;;;;;;31.08;16.52;;;-1.40;1.00;;;;;;7367652;19;20082;-70
2022/12/14 06:41:00;;;;;;;36.42;17.80;;;-1.50;1.00;;;;;;7391214;19;20709;-70
2022/12/14 06:43:30;;;;;;;33.70;17.77;;;-1.50;1.00;;;;;;7367987;19;20453;-71
2022/12/14 06:46:00;;;;;;;32.97;17.50;;;-1.40;1.00;;;;;;7366654;19;20046;-72
2022/12/14 06:48:30;;;;;;;33.67;17.95;;;-1.40;1.00;;;;;;7366148;19;20356;-71
2022/12/14 06:51:02;;;;;;;31.10;18.25;;;-1.50;1.00;;;;;;7369330;19;20029;-72
2022/12/14 06:53:35;;;;;;;33.58;18.10;;;-1.50;1.00;;;;;;7368606;19;20006;-71
2022/12/14 06:56:10;;;;;;;42.53;17.30;;;-1.50;1.00;;;;;;7390867;19;20106;-71
2022/12/14 06:58:40;;;;;;;35.80;19.23;;;-1.40;1.00;;;;;;7368186;19;20474;-70
2022/12/14 07:01:12;;;;;;;36.50;19.05;;;-1.40;1.00;;;;;;7368560;19;20485;-71
2022/12/14 07:03:43;;;;;;;37.10;20.17;;;-1.50;1.00;;;;;;7368378;19;20069;-70
2022/12/14 07:06:13;;;;;;;32.38;19.00;;;-1.60;1.00;;;;;;7368592;19;20010;-72
2022/12/14 07:08:45;;;;;;;34.03;19.42;;;-1.50;1.00;;;;;;7367095;19;20364;-71
2022/12/14 07:11:17;;;;;;;36.75;19.60;;;-1.50;1.00;;;;;;7390865;19;20545;-70
2022/12/14 07:13:47;;;;;;;34.80;18.60;;;-1.50;1.00;;;;;;7367591;19;20440;-72
2022/12/14 07:16:19;;;;;;;36.42;20.27;;;-1.60;1.10;;;;;;7367726;19;20014;-71
2022/12/14 07:18:50;;;;;;;41.47;22.05;;;-1.60;1.90;;;;;;7366243;19;20465;-71
2022/12/14 07:21:21;;;;;;;39.85;19.00;;;-1.50;2.40;;;;;;7367022;19;20010;-70
2022/12/14 07:23:54;;;;;;;37.60;20.42;;;-1.40;2.70;;;;;;7367413;19;20688;-71
2022/12/14 07:26:26;;;;;;;38.83;20.10;;;-1.50;3.40;;;;;;7366970;19;20074;-72
2022/12/14 07:28:56;;;;;;;39.88;22.38;;;-1.50;3.50;;;;;;7386322;19;20042;-71
2022/12/14 07:31:28;;;;;;;38.15;21.30;;;-1.60;4.80;;;;;;7366928;19;20011;-71
2022/12/14 07:34:00;;;;;;;43.13;21.55;;;-1.40;4.90;;;;;;7366647;19;20014;-71
2022/12/14 07:36:31;;;;;;;38.92;19.88;;;-1.50;4.60;;;;;;7367058;19;20018;-70
2022/12/14 07:39:04;;;;;;;37.33;19.90;;;-1.60;4.50;;;;;;7366159;19;20070;-74
2022/12/14 07:41:34;;;;;;;41.15;21.60;;;-1.50;4.90;;;;;;7366161;19;20003;-71
2022/12/14 07:44:04;;;;;;;37.30;21.20;;;-1.40;4.90;;;;;;7389117;19;20014;-72
2022/12/14 07:46:34;;;;;;;40.60;20.25;;;-1.40;4.30;;;;;;7366850;19;20741;-71
2022/12/14 07:49:05;;;;;;;39.55;22.00;;;-1.30;4.90;;;;;;7365310;19;20017;-72
2022/12/14 07:51:40;;;;;;;37.70;21.02;;;-1.40;3.90;;;;;;7367606;19;20021;-71
2022/12/14 07:54:13;;;;;;;38.10;20.02;;;-1.40;3.80;;;;;;7367416;19;20013;-71
2022/12/14 07:56:44;;;;;;;38.97;21.65;;;-1.30;4.90;;;;;;7366878;19;20004;-71
2022/12/14 07:59:16;;;;;;;38.80;20.58;;;-1.40;4.20;;;;;;7388083;19;20418;-71
2022/12/14 08:01:46;;;;;;;37.60;20.58;;;-1.30;4.90;;;;;;7370129;19;20034;-71
2022/12/14 08:04:18;;;;;;;38.58;20.40;;;-1.20;4.50;;;;;;7374489;19;20027;-71
2022/12/14 08:06:49;;;;;;;40.72;20.40;;;-1.20;4.30;;;;;;7373055;19;20093;-72
2022/12/14 08:09:21;;;;;;;41.70;22.48;;;-1.10;2.90;;;;;;7371692;19;20023;-71
2022/12/14 08:11:51;;;;;;;35.95;21.02;;;-0.90;2.30;;;;;;7372621;19;20010;-71
2022/12/14 08:14:21;;;;;;;38.78;20.30;;;-1.20;2.10;;;;;;7394850;19;20041;-71
2022/12/14 08:16:51;;;;;;;35.75;20.83;;;-1.10;3.10;;;;;;7373097;19;20018;-71
2022/12/14 08:19:22;;;;;;;41.15;22.08;;;-1.00;3.00;;;;;;7371164;19;20078;-71
2022/12/14 08:21:52;;;;;;;35.42;19.98;;;-1.00;3.20;;;;;;7372046;19;20038;-71
2022/12/14 08:24:24;;;;;;;38.08;20.98;;;-1.20;2.70;;;;;;7397446;19;20010;-71
2022/12/14 08:26:55;;;;;;;36.28;21.20;;;-1.10;3.20;;;;;;7397322;19;20010;-71
2022/12/14 08:29:24;;;;;;;37.78;21.23;;;-1.20;3.80;;;;;;7394785;19;20015;-71
2022/12/14 08:31:57;;;;;;;37.58;20.67;;;-1.10;4.40;;;;;;7398327;19;20020;-70
2022/12/14 08:34:27;;;;;;;42.30;22.42;;;-1.00;3.80;;;;;;7398144;19;20010;-71
2022/12/14 08:36:57;;;;;;;40.88;22.10;;;-1.20;4.40;;;;;;7397500;19;20010;-71
2022/12/14 08:39:29;;;;;;;43.00;20.95;;;-1.00;5.20;;;;;;7394378;19;20022;-71
2022/12/14 08:41:59;;;;;;;36.47;21.85;;;-0.90;4.50;;;;;;7397118;19;20013;-71
2022/12/14 08:44:29;;;;;;;42.55;23.02;;;-0.90;5.20;;;;;;7397400;19;20070;-71
2022/12/14 08:46:59;;;;;;;43.22;22.63;;;-1.00;5.20;;;;;;7397155;19;20021;-71
2022/12/14 08:49:29;;;;;;;41.92;23.70;;;-1.00;6.80;;;;;;7394022;19;20509;-71
2022/12/14 08:52:01;;;;;;;45.55;23.20;;;-0.90;6.90;;;;;;7394271;19;20031;-71
2022/12/14 08:54:34;;;;;;;43.33;23.33;;;-0.80;8.90;;;;;;7395826;19;20481;-72
2022/12/14 08:57:05;;;;;;;42.05;22.88;;;-0.90;8.80;;;;;;7391899;19;20088;-76
2022/12/14 08:59:35;;;;;;;41.97;22.98;;;-0.90;8.80;;;;;;7386666;19;20011;-75
2022/12/14 09:02:25;;;;;;;44.53;24.85;;;-1.00;8.80;;;;;;7391999;19;20010;-76
2022/12/14 09:04:55;;;;;;;41.60;22.85;;;-1.00;8.80;;;;;;7387962;19;20011;-76
2022/12/14 09:07:24;;;;;;;43.55;22.83;;;-1.00;8.80;;;;;;7392394;19;20015;-75
2022/12/14 09:09:57;;;;;;;43.72;24.05;;;-1.10;10.50;;;;;;7380387;19;20106;-74
2022/12/14 09:12:27;;;;;;;48.15;24.70;;;-1.10;11.00;;;;;;7388791;19;20569;-75
2022/12/14 09:14:57;;;;;;;45.13;24.98;;;-0.90;12.00;;;;;;7390354;19;20713;-75
2022/12/14 09:17:26;;;;;;;41.78;23.55;;;-1.10;11.60;;;;;;7388832;19;20006;-75
2022/12/14 09:19:56;;;;;;;44.47;25.17;;;-1.20;11.70;;;;;;7358034;19;20017;-75
2022/12/14 09:22:26;;;;;;;55.58;26.38;;;-1.10;12.10;;;;;;7363760;19;20080;-75
2022/12/14 09:24:59;;;;;;;49.75;25.20;;;-1.10;12.70;;;;;;7364048;19;20014;-76
2022/12/14 09:27:29;;;;;;;48.60;24.55;;;-1.00;12.30;;;;;;7389079;19;20066;-75
2022/12/14 09:29:59;;;;;;;40.65;23.33;;;-0.90;13.30;;;;;;7355284;19;20376;-76
2022/12/14 09:32:30;;;;;;;48.53;23.80;;;-0.90;12.40;;;;;;7367423;19;20007;-76
2022/12/14 09:35:00;;;;;;;46.35;24.35;;;-0.80;13.00;;;;;;7365755;19;20023;-76
2022/12/14 09:37:30;;;;;;;50.53;23.85;;;-0.90;13.10;;;;;;7364455;19;20017;-74
2022/12/14 09:40:03;;;;;;;43.90;23.25;;;-0.90;13.00;;;;;;7359324;19;20044;-76
2022/12/14 09:42:47;;;;;;;44.72;23.58;;;-1.00;13.10;;;;;;7388519;19;20098;-76
2022/12/14 09:45:24;;;;;;;45.75;25.17;;;-1.10;13.30;;;;;;7368790;19;20440;-75
2022/12/14 09:48:01;;;;;;;46.25;24.92;;;-1.10;13.40;;;;;;7367345;19;20007;-75
2022/12/14 09:50:31;;;;;;;51.55;27.23;;;-1.00;13.40;;;;;;7359415;19;20011;-76
2022/12/14 09:53:04;;;;;;;51.25;25.95;;;-1.00;14.00;;;;;;7367338;19;20010;-75
2022/12/14 09:55:38;;;;;;;54.03;27.20;;;-1.00;14.90;;;;;;7368161;19;20010;-75
2022/12/14 09:58:25;;;;;;;50.38;26.13;;;-0.90;15.90;;;;;;7366729;19;20021;-75
2022/12/14 10:01:02;;;;;;;47.33;25.60;;;-0.80;16.60;;;;;;7361717;19;20368;-74
2022/12/14 10:03:49;;;;;;;44.92;25.30;;;-0.80;16.80;;;;;;7387921;19;20014;-74
2022/12/14 10:06:36;;;;;;;47.95;26.52;;;-0.80;17.70;;;;;;7367685;19;20027;-76
2022/12/14 10:09:15;;;;;;;49.28;26.30;;;-0.90;18.40;;;;;;7364916;19;20014;-76
2022/12/14 10:11:56;;;;;;;55.05;26.92;;;-1.00;19.20;;;;;;7366563;19;20093;-75
2022/12/14 10:14:43;;;;;;;59.53;29.00;;;-1.00;20.10;;;;;;7365773;19;20010;-75
2022/12/14 10:17:21;;;;;;;51.08;26.33;;;-0.90;20.90;;;;;;7367656;19;20379;-75
2022/12/14 10:19:55;;;;;;;60.65;28.63;;;-0.80;21.70;;;;;;7359893;19;20010;-75
2022/12/14 10:22:30;;;;;;;53.33;27.23;;;-0.70;22.80;;;;;;7367586;19;20010;-75
2022/12/14 10:25:06;;;;;;;56.83;29.23;;;-0.90;21.60;;;;;;7365126;19;20022;-75
2022/12/14 10:27:39;;;;;;;58.08;29.17;;;-0.80;22.60;;;;;;7387283;19;20010;-76
2022/12/14 10:30:30;;;;;;;51.35;27.02;;;-0.80;21.20;;;;;;7353474;19;20011;-75
2022/12/14 10:33:08;;;;;;;54.13;27.38;;;-0.80;22.70;;;;;;7366473;19;20010;-75
2022/12/14 10:35:43;;;;;;;48.55;27.23;;;-0.70;23.30;;;;;;7366018;19;20010;-75
2022/12/14 10:38:19;;;;;;;49.53;26.33;;;-0.90;21.80;;;;;;7366618;19;20014;-75
2022/12/14 10:40:52;;;;;;;57.70;29.33;;;-0.90;22.50;;;;;;7359857;19;20418;-75
2022/12/14 10:43:45;;;;;;;47.85;26.38;;;-0.90;22.70;;;;;;7366429;19;21055;-75
2022/12/14 10:46:23;;;;;;;48.03;26.27;;;-1.00;22.60;;;;;;7366727;19;20010;-75
2022/12/14 10:48:58;;;;;;;54.97;28.20;;;-1.00;22.60;;;;;;7364835;19;20014;-76
2022/12/14 10:51:31;;;;;;;;;;;-0.90;23.40;;;;;;7382103;19;20527;-76
2022/12/14 10:54:11;;;;;;;56.67;28.83;;;-0.80;23.80;;;;;;7366122;19;19998;-75
2022/12/14 10:56:43;;;;;;;59.45;29.58;;;-0.70;23.70;;;;;;7365633;19;20034;-75
2022/12/14 10:59:36;;;;;;;59.28;30.83;;;-0.60;22.90;;;;;;7361073;19;20118;-75
2022/12/14 11:02:18;;;;;;;52.33;27.90;;;-0.40;24.80;;;;;;7366687;19;20011;-73
2022/12/14 11:04:54;;;;;;;52.60;28.90;;;-0.40;22.20;;;;;;7365277;19;20010;-75
2022/12/14 11:07:26;;;;;;;51.05;27.50;;;-0.40;22.00;;;;;;7364672;19;20006;-74
2022/12/14 11:10:15;;;;;;;53.30;26.92;;;-0.50;20.50;;;;;;7355123;19;20090;-76
2022/12/14 11:12:57;;;;;;;52.35;27.75;;;-0.60;22.80;;;;;;7386465;19;20013;-76
2022/12/14 11:15:34;;;;;;;54.05;27.05;;;-0.60;22.80;;;;;;7364719;19;20014;-75
2022/12/14 11:18:07;;;;;;;51.90;26.75;;;-0.40;23.00;;;;;;7364621;19;20371;-75
2022/12/14 11:20:37;;;;;;;53.97;28.33;;;-0.30;23.00;;;;;;7357625;19;20002;-74
2022/12/14 11:23:22;;;;;;;53.78;27.70;;;-0.20;22.10;;;;;;7364725;19;20003;-75
2022/12/14 11:25:55;;;;;;;50.05;27.17;;;-0.30;22.00;;;;;;7364104;19;20021;-74
2022/12/14 11:28:31;;;;;;;45.60;26.73;;;-0.10;21.10;;;;;;7362432;19;20501;-74
2022/12/14 11:31:13;;;;;;;51.83;27.58;;;0.20;20.30;;;;;;7357341;19;20393;-74
2022/12/14 11:33:47;;;;;;;48.13;26.83;;;0.20;18.70;;;;;;7387067;19;20014;-75
2022/12/14 11:36:25;;;;;;;46.05;26.02;;;0.20;17.60;;;;;;7369766;19;20010;-75
2022/12/14 11:38:59;;;;;;;45.83;25.70;;;0.10;17.10;;;;;;7370010;19;20025;-75
2022/12/14 11:41:34;;;;;;;49.25;26.90;;;-0.20;18.20;;;;;;7366678;19;20078;-74
2022/12/14 11:44:05;;;;;;;;;;;-0.20;18.00;;;;;;7373730;19;20014;-74
2022/12/14 11:46:52;;;;;;;47.08;24.75;;;-0.10;18.60;;;;;;7372334;19;19985;-75
2022/12/14 11:49:31;;;;;;;49.65;25.00;;;-0.10;19.00;;;;;;7365068;19;20082;-74
2022/12/14 11:52:06;;;;;;;46.92;25.33;;;-0.20;18.10;;;;;;7372083;19;20734;-75
2022/12/14 11:54:36;;;;;;;;;;;-0.40;18.10;;;;;;7394308;19;20018;-74
2022/12/14 11:57:09;;;;;;;47.67;24.27;;;-0.30;19.80;;;;;;7371815;19;19933;-75
2022/12/14 11:59:44;;;;;;;46.95;25.10;;;-0.20;18.90;;;;;;7362783;19;20033;-75
2022/12/14 12:02:30;;;;;;;45.75;24.05;;;-0.20;18.30;;;;;;7371633;19;20804;-75
2022/12/14 12:05:06;;;;;;;47.78;25.63;;;-0.20;19.80;;;;;;7370745;19;20552;-75
2022/12/14 12:07:39;;;;;;;45.05;24.17;;;-0.30;19.20;;;;;;7373018;19;20093;-74
2022/12/14 12:10:18;;;;;;;47.17;25.13;;;-0.10;20.40;;;;;;7362769;19;20023;-75
2022/12/14 12:12:51;;;;;;;50.10;26.25;;;0.00;20.10;;;;;;7371382;19;20822;-74
2022/12/14 12:15:26;;;;;;;52.88;27.65;;;-0.10;19.50;;;;;;7391709;19;20014;-74
2022/12/14 12:18:03;;;;;;;48.58;27.38;;;-0.20;21.00;;;;;;7371282;19;20353;-75
2022/12/14 12:20:38;;;;;;;55.55;27.83;;;-0.20;21.90;;;;;;7360984;19;20034;-75
2022/12/14 12:23:15;;;;;;;54.88;27.75;;;-0.20;21.90;;;;;;7371202;19;20003;-75
2022/12/14 12:25:48;;;;;;;47.95;27.05;;;-0.30;22.60;;;;;;7394069;19;20010;-76
2022/12/14 12:28:26;;;;;;;54.22;27.27;;;-0.40;23.00;;;;;;7394785;19;20090;-74
2022/12/14 12:31:00;;;;;;;58.00;27.55;;;-0.40;23.00;;;;;;7385533;19;20014;-75
2022/12/14 12:33:47;;;;;;;54.47;29.25;;;-0.60;23.90;;;;;;7393992;19;20019;-74
2022/12/14 12:36:20;;;;;;;55.70;28.33;;;-0.60;24.40;;;;;;7393241;19;20042;-75
2022/12/14 12:39:06;;;;;;;57.80;28.50;;;-0.60;25.30;;;;;;7390062;19;20010;-76
2022/12/14 12:41:45;;;;;;;49.72;26.88;;;-0.50;26.30;;;;;;7388716;19;20013;-75
2022/12/14 12:44:26;;;;;;;49.35;26.30;;;-0.50;24.40;;;;;;7394815;19;20022;-76
2022/12/14 12:47:05;;;;;;;52.17;27.95;;;-0.60;24.00;;;;;;7392525;19;20010;-76
2022/12/14 12:50:01;;;;;;;53.90;26.65;;;-0.60;23.60;;;;;;7385081;19;20056;-76
2022/12/14 12:52:35;;;;;;;52.60;27.70;;;-0.70;24.20;;;;;;7365593;19;20011;-75
2022/12/14 12:55:10;;;;;;;;;;;-0.60;24.40;;;;;;7384787;19;20034;-77
2022/12/14 12:57:43;;;;;;;49.70;27.08;;;-0.70;25.00;;;;;;7365407;19;19945;-76
2022/12/14 13:00:20;;;;;;;67.88;28.67;;;-0.60;25.60;;;;;;7361751;19;20002;-75
2022/12/14 13:02:53;;;;;;;54.88;28.08;;;-0.70;26.20;;;;;;7366557;19;20464;-75
2022/12/14 13:05:29;;;;;;;54.25;27.52;;;-0.70;26.50;;;;;;7367165;19;20036;-75
2022/12/14 13:08:23;;;;;;;58.05;28.25;;;-0.60;27.80;;;;;;7369218;19;20015;-76
2022/12/14 13:10:55;;;;;;;55.70;28.15;;;-0.80;27.60;;;;;;7357975;19;20137;-77
2022/12/14 13:13:50;;;;;;;62.65;31.60;;;-0.70;28.00;;;;;;7366168;19;20022;-75
2022/12/14 13:16:22;;;;;;;;;;;-0.70;28.50;;;;;;7391706;19;20018;-75
2022/12/14 13:19:03;;;;;;;59.10;30.15;;;-0.90;28.50;;;;;;7363517;19;19917;-76
2022/12/14 13:21:56;;;;;;;62.53;29.52;;;-0.90;29.30;;;;;;7364321;19;20346;-75
2022/12/14 13:24:34;;;;;;;65.65;32.22;;;-1.00;29.30;;;;;;7367545;19;20787;-76
2022/12/14 13:27:24;;;;;;;71.90;34.15;;;-0.90;30.40;;;;;;7364989;19;20014;-77